Time;durP1;ratioP1;P1;durP2;ratioP2;P2;SDS_P1;SDS_P2;PMS_P1;PMS_P2;Temp;Humidity;BMP_temperature;BMP_pressure;BME280_temperature;BME280_humidity;BME280_pressure;Samples;Min_cycle;Max_cycle;Signal;HPM_P1;HPM_P2
2022/11/19 00:02:17;;;;;;;24.42;12.15;;;;;;;4.33;100.00;100709.75;5050246;28;20119;-70
2022/11/19 00:04:42;;;;;;;21.52;11.18;;;;;;;4.31;100.00;100703.78;5050254;28;20036;-70
2022/11/19 00:07:07;;;;;;;22.90;11.93;;;;;;;4.32;100.00;100708.09;5050116;28;20090;-70
2022/11/19 00:09:33;;;;;;;23.00;10.00;;;;;;;4.24;100.00;100701.94;5050157;28;20048;-70
2022/11/19 00:14:42;;;;;;;22.85;11.02;;;;;;;4.27;100.00;100704.25;5050092;28;20103;-70
2022/11/19 00:17:07;;;;;;;27.23;12.38;;;;;;;4.23;100.00;100716.97;5049887;28;20036;-70
2022/11/19 00:19:33;;;;;;;26.50;14.18;;;;;;;4.17;100.00;100715.78;5049965;28;20085;-70
2022/11/19 00:21:58;;;;;;;27.83;13.68;;;;;;;4.19;100.00;100720.88;5049901;28;20048;-70
2022/11/19 00:24:27;;;;;;;27.00;12.75;;;;;;;4.19;100.00;100726.16;5049842;28;20056;-70
2022/11/19 00:26:54;;;;;;;24.05;11.60;;;;;;;4.07;100.00;100707.16;5049131;28;20045;-69
2022/11/19 00:29:19;;;;;;;29.23;13.68;;;;;;;4.21;100.00;100726.03;5049866;28;20055;-69
2022/11/19 00:31:45;;;;;;;23.45;12.25;;;;;;;4.18;100.00;100725.34;5049877;28;20041;-70
2022/11/19 00:34:11;;;;;;;28.77;13.68;;;;;;;4.16;100.00;100722.03;5049152;28;20543;-70
2022/11/19 00:36:36;;;;;;;26.35;13.23;;;;;;;4.17;100.00;100725.53;5049891;28;20039;-70
2022/11/19 00:39:01;;;;;;;25.60;11.75;;;;;;;4.17;100.00;100726.34;5049846;28;20476;-70
2022/11/19 00:41:27;;;;;;;26.70;11.95;;;;;;;4.12;100.00;100727.81;5049780;28;20131;-70
2022/11/19 00:43:53;;;;;;;26.50;11.43;;;;;;;4.13;100.00;100735.53;5048444;28;20036;-70
2022/11/19 00:46:24;;;;;;;23.13;12.10;;;;;;;4.04;100.00;100728.59;5049311;28;20037;-70
2022/11/19 00:48:52;;;;;;;25.45;12.63;;;;;;;4.05;100.00;100738.16;5047802;28;20480;-70
2022/11/19 00:51:19;;;;;;;24.92;11.65;;;;;;;3.99;100.00;100740.59;5049378;28;20388;-70
2022/11/19 00:53:45;;;;;;;22.40;10.77;;;;;;;3.95;100.00;100737.44;5048788;28;20032;-70
2022/11/19 00:56:13;;;;;;;27.08;12.75;;;;;;;3.94;100.00;100727.88;5049589;28;20024;-70
2022/11/19 00:58:40;;;;;;;28.98;12.32;;;;;;;3.92;100.00;100733.28;5049295;28;20056;-70
2022/11/19 01:01:07;;;;;;;24.92;12.82;;;;;;;3.93;100.00;100736.78;5049448;28;20120;-70
2022/11/19 01:03:33;;;;;;;26.08;14.40;;;;;;;3.91;100.00;100736.94;5049565;28;20091;-70
2022/11/19 01:05:58;;;;;;;24.10;11.32;;;;;;;3.83;100.00;100725.50;5049272;28;20106;-70
2022/11/19 01:08:24;;;;;;;27.42;10.55;;;;;;;3.84;100.00;100732.44;5049578;28;20145;-70
2022/11/19 01:10:50;;;;;;;20.65;10.07;;;;;;;3.83;100.00;100738.69;5049321;28;20033;-70
2022/11/19 01:13:33;;;;;;;21.30;9.68;;;;;;;3.82;100.00;100743.13;5049299;28;20511;-70
2022/11/19 01:15:59;;;;;;;24.52;11.85;;;;;;;3.76;100.00;100742.94;5047986;28;20115;-69
2022/11/19 01:18:26;;;;;;;24.17;11.43;;;;;;;3.79;100.00;100743.44;5049532;28;20108;-70
2022/11/19 01:20:52;;;;;;;23.17;11.27;;;;;;;3.78;100.00;100754.16;5049360;28;20027;-70
2022/11/19 01:23:17;;;;;;;22.27;10.40;;;;;;;3.77;100.00;100755.94;5047905;28;20037;-70
2022/11/19 01:25:43;;;;;;;22.48;11.93;;;;;;;3.77;100.00;100760.41;5049295;28;20032;-70
2022/11/19 01:28:08;;;;;;;24.80;11.50;;;;;;;3.73;100.00;100759.88;5048877;28;20496;-70
2022/11/19 01:30:34;;;;;;;19.55;9.10;;;;;;;3.72;100.00;100766.13;5048889;28;20135;-70
2022/11/19 01:32:59;;;;;;;22.13;10.82;;;;;;;3.70;100.00;100768.94;5049093;28;20475;-70
2022/11/19 01:35:25;;;;;;;22.35;9.38;;;;;;;3.70;100.00;100763.66;5049132;28;20029;-70
2022/11/19 01:37:51;;;;;;;21.75;10.85;;;;;;;3.71;100.00;100773.22;5049184;28;20029;-70
2022/11/19 01:40:17;;;;;;;19.25;10.98;;;;;;;3.67;100.00;100763.97;5049032;28;20036;-70
2022/11/19 01:42:49;;;;;;;21.63;9.80;;;;;;;3.60;100.00;100756.81;5048516;28;20037;-69
2022/11/19 01:45:35;;;;;;;24.02;9.30;;;;;;;3.66;100.00;100777.31;5050493;28;20139;-69
2022/11/19 01:48:28;;;;;;;21.80;9.45;;;;;;;3.66;100.00;100775.50;5052797;28;20040;-69
2022/11/19 01:50:55;;;;;;;20.85;9.63;;;;;;;3.64;100.00;100776.63;5052370;28;20474;-69
2022/11/19 01:53:26;;;;;;;23.33;9.20;;;;;;;3.64;100.00;100779.25;5052736;28;20059;-69
2022/11/19 01:55:52;;;;;;;27.33;11.20;;;;;;;3.65;100.00;100779.13;5051600;28;20033;-69
2022/11/19 01:58:23;;;;;;;22.15;11.30;;;;;;;3.55;100.00;100772.28;5052505;28;20053;-69
2022/11/19 02:00:48;;;;;;;20.45;10.45;;;;;;;3.62;100.00;100791.78;5052649;28;20035;-70
2022/11/19 02:03:15;;;;;;;21.58;11.40;;;;;;;3.57;100.00;100794.88;5052603;28;20024;-70
2022/11/19 02:05:41;;;;;;;23.13;11.63;;;;;;;3.49;100.00;100789.53;5052398;28;20033;-70
2022/11/19 02:08:28;;;;;;;25.02;10.95;;;;;;;3.41;100.00;100792.94;5052378;28;20047;-69
2022/11/19 02:11:13;;;;;;;22.80;11.60;;;;;;;3.43;100.00;100808.59;5050864;28;20503;-69
2022/11/19 02:13:44;;;;;;;22.63;10.80;;;;;;;3.35;100.00;100801.44;5050390;28;20045;-70
2022/11/19 02:16:16;;;;;;;21.58;9.90;;;;;;;3.23;100.00;100795.56;5052417;28;20028;-69
2022/11/19 02:18:52;;;;;;;19.17;9.38;;;;;;;3.25;100.00;100798.06;5052404;28;20036;-69
2022/11/19 02:21:20;;;;;;;20.92;9.57;;;;;;;3.22;100.00;100812.38;5052175;28;20066;-70
2022/11/19 02:24:07;;;;;;;21.98;9.35;;;;;;;3.18;100.00;100816.28;5052029;28;20033;-69
2022/11/19 02:27:09;;;;;;;22.88;9.88;;;;;;;3.16;100.00;100812.94;5052106;28;20040;-69
2022/11/19 02:30:03;;;;;;;19.20;9.65;;;;;;;3.13;100.00;100825.59;5051483;28;20025;-70
2022/11/19 02:32:54;;;;;;;19.23;8.85;;;;;;;3.08;100.00;100818.13;5052116;28;20029;-69
2022/11/19 02:35:27;;;;;;;17.92;8.38;;;;;;;2.97;100.00;100815.72;5041149;28;20511;-69
2022/11/19 02:38:02;;;;;;;19.63;10.02;;;;;;;2.92;100.00;100816.16;5051758;28;20071;-69
2022/11/19 02:40:40;;;;;;;21.83;10.90;;;;;;;2.89;100.00;100823.53;5051934;28;20033;-69
2022/11/19 02:43:08;;;;;;;23.45;10.35;;;;;;;2.82;100.00;100826.72;5051798;28;20070;-70
2022/11/19 02:46:02;;;;;;;18.45;9.48;;;;;;;2.75;100.00;100822.19;5051174;28;20069;-69
2022/11/19 02:48:34;;;;;;;20.65;10.02;;;;;;;2.66;100.00;100829.19;5050685;28;20045;-69
2022/11/19 02:51:02;;;;;;;20.73;10.93;;;;;;;2.66;100.00;100817.81;5051764;28;20021;-70
2022/11/19 02:53:29;;;;;;;21.55;9.38;;;;;;;2.62;100.00;100818.13;5051675;28;20029;-70
2022/11/19 02:56:12;;;;;;;22.42;10.48;;;;;;;2.62;100.00;100819.94;5051334;28;20079;-69
2022/11/19 03:04:30;;;;;;;24.25;11.68;;;;;;;2.57;100.00;100817.72;5051742;28;20055;-69
2022/11/19 03:06:58;;;;;;;22.17;11.45;;;;;;;2.55;100.00;100817.03;5051325;28;20029;-69
2022/11/19 03:09:23;;;;;;;21.45;10.20;;;;;;;2.58;100.00;100819.38;5051311;28;20041;-70
2022/11/19 03:11:57;;;;;;;24.92;11.57;;;;;;;2.58;100.00;100821.19;5051269;28;20067;-70
2022/11/19 03:17:20;;;;;;;26.08;10.98;;;;;;;2.56;100.00;100823.13;5051275;28;20268;-70
2022/11/19 03:19:55;;;;;;;24.85;12.45;;;;;;;2.54;100.00;100820.66;5049900;28;20510;-69
2022/11/19 03:22:23;;;;;;;24.63;10.65;;;;;;;2.53;100.00;100834.78;5051020;28;20052;-69
2022/11/19 03:25:15;;;;;;;24.50;11.75;;;;;;;2.51;100.00;100841.97;5051042;28;20024;-70
2022/11/19 03:27:45;;;;;;;22.45;10.82;;;;;;;2.51;100.00;100844.59;5050540;28;20503;-70
2022/11/19 03:30:12;;;;;;;22.58;10.05;;;;;;;2.49;100.00;100843.09;5050410;28;20515;-70
2022/11/19 03:32:46;;;;;;;24.10;11.82;;;;;;;2.48;100.00;100841.44;5050406;28;20056;-70
2022/11/19 03:35:34;;;;;;;23.27;11.15;;;;;;;2.50;100.00;100853.50;5050379;28;20027;-70
2022/11/19 03:38:04;;;;;;;26.92;12.75;;;;;;;2.39;100.00;100840.53;5050643;28;20072;-70
2022/11/19 03:40:32;;;;;;;24.42;11.70;;;;;;;2.48;100.00;100851.97;5050801;28;20486;-70
2022/11/19 03:43:00;;;;;;;25.58;13.07;;;;;;;2.41;100.00;100849.94;5050733;28;20025;-70
2022/11/19 03:45:30;;;;;;;24.98;11.82;;;;;;;2.39;100.00;100841.34;5050529;28;20025;-70
2022/11/19 03:48:00;;;;;;;25.52;12.32;;;;;;;2.45;100.00;100850.47;5050494;28;20529;-70
2022/11/19 03:50:41;;;;;;;24.73;11.85;;;;;;;2.45;100.00;100842.56;5052143;28;20028;-70
2022/11/19 03:53:07;;;;;;;30.17;13.32;;;;;;;2.44;100.00;100847.97;5052099;28;20108;-70
2022/11/19 03:55:38;;;;;;;29.00;15.65;;;;;;;2.38;100.00;100849.38;5050507;28;20120;-69
2022/11/19 03:58:06;;;;;;;25.17;12.18;;;;;;;2.39;100.00;100846.59;5049960;28;20053;-69
2022/11/19 04:00:32;;;;;;;25.05;12.48;;;;;;;2.40;100.00;100847.44;5050157;28;20025;-70
2022/11/19 04:02:58;;;;;;;28.20;13.48;;;;;;;2.38;100.00;100854.63;5050322;28;20040;-70
2022/11/19 04:05:24;;;;;;;27.02;13.40;;;;;;;2.40;100.00;100852.69;5050281;28;20037;-70
2022/11/19 04:07:49;;;;;;;24.23;13.30;;;;;;;2.43;100.00;100855.03;5049817;28;20468;-70
2022/11/19 04:10:15;;;;;;;25.85;11.50;;;;;;;2.40;100.00;100855.31;5049682;28;20062;-70
2022/11/19 04:12:40;;;;;;;25.95;12.48;;;;;;;2.35;100.00;100855.75;5048764;28;20036;-69
2022/11/19 04:15:06;;;;;;;26.45;13.75;;;;;;;2.37;100.00;100855.63;5050246;28;20029;-69
2022/11/19 04:17:31;;;;;;;25.88;14.18;;;;;;;2.39;100.00;100864.22;5050157;28;20028;-69
2022/11/19 04:19:57;;;;;;;26.45;13.48;;;;;;;2.40;100.00;100860.59;5050151;28;20380;-69
2022/11/19 04:22:22;;;;;;;23.73;13.50;;;;;;;2.45;100.00;100878.59;5048666;28;20395;-69
2022/11/19 04:24:47;;;;;;;27.60;13.05;;;;;;;2.45;100.00;100878.59;5050017;28;20051;-69
2022/11/19 04:27:13;;;;;;;25.20;13.00;;;;;;;2.44;100.00;100884.81;5049676;28;20097;-70
2022/11/19 04:29:38;;;;;;;23.25;12.13;;;;;;;2.45;100.00;100889.13;5049919;28;20033;-69
2022/11/19 04:32:04;;;;;;;28.63;14.73;;;;;;;2.37;100.00;100890.66;5049429;28;20044;-69
2022/11/19 04:34:29;;;;;;;25.95;13.25;;;;;;;2.27;100.00;100878.50;5049238;28;20025;-70
2022/11/19 04:36:55;;;;;;;29.08;14.65;;;;;;;2.29;100.00;100882.66;5049660;28;20044;-70
2022/11/19 04:39:20;;;;;;;26.35;13.63;;;;;;;2.28;100.00;100888.03;5050224;28;20037;-70
2022/11/19 04:41:45;;;;;;;24.40;12.02;;;;;;;2.19;100.00;100879.19;5049653;28;20028;-70
2022/11/19 04:44:11;;;;;;;28.95;16.00;;;;;;;2.24;100.00;100900.66;5049881;28;20132;-70
2022/11/19 04:46:36;;;;;;;27.95;13.73;;;;;;;2.22;100.00;100899.13;5048213;28;20075;-70
2022/11/19 04:49:01;;;;;;;27.90;15.40;;;;;;;2.21;100.00;100905.38;5049633;28;20056;-70
2022/11/19 04:51:27;;;;;;;26.05;13.90;;;;;;;2.19;100.00;100900.25;5048200;28;20037;-70
2022/11/19 04:53:53;;;;;;;26.35;13.15;;;;;;;2.18;100.00;100911.75;5049605;28;20040;-70
2022/11/19 04:56:18;;;;;;;29.08;13.98;;;;;;;2.13;100.00;100909.53;5049511;28;20021;-70
2022/11/19 04:58:44;;;;;;;27.08;13.13;;;;;;;2.14;100.00;100905.09;5049297;28;20080;-70
2022/11/19 05:01:09;;;;;;;29.67;17.02;;;;;;;2.13;100.00;100901.66;5049126;28;20029;-70
2022/11/19 05:03:35;;;;;;;27.98;13.80;;;;;;;2.10;100.00;100901.09;5049481;28;20119;-70
2022/11/19 05:06:00;;;;;;;29.45;15.98;;;;;;;2.09;100.00;100902.88;5049375;28;20029;-70
2022/11/19 05:08:25;;;;;;;31.88;16.25;;;;;;;2.10;100.00;100904.56;5049359;28;20487;-70
2022/11/19 05:10:51;;;;;;;29.63;15.82;;;;;;;2.11;100.00;100905.38;5049456;28;20032;-70
2022/11/19 05:13:16;;;;;;;32.05;15.10;;;;;;;2.09;100.00;100905.50;5049440;28;20503;-69
2022/11/19 05:15:42;;;;;;;28.35;16.17;;;;;;;2.12;100.00;100912.28;5049437;28;20025;-70
2022/11/19 05:18:07;;;;;;;27.23;12.57;;;;;;;2.07;100.00;100911.88;5049326;28;20457;-70
2022/11/19 05:20:32;;;;;;;27.67;14.77;;;;;;;2.03;100.00;100918.41;5051326;28;20035;-70
2022/11/19 05:22:58;;;;;;;28.00;13.40;;;;;;;2.03;100.00;100927.13;5054254;28;20033;-70
2022/11/19 05:25:23;;;;;;;29.05;15.10;;;;;;;2.01;100.00;100929.06;5053661;28;20388;-70
2022/11/19 05:27:48;;;;;;;29.00;15.20;;;;;;;2.03;100.00;100937.66;5053670;28;20025;-70
2022/11/19 05:30:15;;;;;;;27.08;12.57;;;;;;;2.02;100.00;100943.88;5053197;28;20090;-70
2022/11/19 05:32:40;;;;;;;30.05;17.15;;;;;;;2.05;100.00;100943.59;5052753;28;20245;-70
2022/11/19 05:35:06;;;;;;;29.63;15.55;;;;;;;2.04;100.00;100949.00;5053112;28;20524;-70
2022/11/19 05:37:32;;;;;;;30.52;15.73;;;;;;;1.97;100.00;100943.47;5052481;28;20036;-70
2022/11/19 05:39:57;;;;;;;27.52;15.38;;;;;;;1.95;100.00;100953.28;5052969;28;20025;-70
2022/11/19 05:42:22;;;;;;;31.15;15.02;;;;;;;1.93;100.00;100952.59;5053013;28;20090;-70
2022/11/19 05:44:48;;;;;;;31.20;16.40;;;;;;;1.91;100.00;100963.28;5053038;28;20036;-70
2022/11/19 05:47:17;;;;;;;29.98;15.10;;;;;;;1.87;100.00;100955.78;5052880;28;20377;-70
2022/11/19 05:49:42;;;;;;;27.40;15.15;;;;;;;1.87;100.00;100961.06;5052949;28;20033;-69
2022/11/19 05:52:09;;;;;;;32.88;15.65;;;;;;;1.85;100.00;100968.25;5052756;28;20433;-69
2022/11/19 05:54:34;;;;;;;27.52;14.93;;;;;;;1.85;100.00;100973.50;5052690;28;20430;-70
2022/11/19 05:56:59;;;;;;;28.20;16.15;;;;;;;1.83;100.00;100970.16;5052663;28;20049;-66
2022/11/19 05:59:25;;;;;;;29.80;13.05;;;;;;;1.78;100.00;100962.69;5052739;28;20072;-66
2022/11/19 06:01:50;;;;;;;32.90;18.25;;;;;;;1.81;100.00;100969.47;5052656;28;20110;-66
2022/11/19 06:04:15;;;;;;;32.45;17.45;;;;;;;1.79;100.00;100976.69;5052461;28;20055;-66
2022/11/19 06:06:41;;;;;;;30.80;18.35;;;;;;;1.73;100.00;100968.38;5052376;28;20029;-67
2022/11/19 06:09:07;;;;;;;32.28;16.40;;;;;;;1.72;100.00;100971.94;5052636;28;20029;-67
2022/11/19 06:11:48;;;;;;;31.58;16.17;;;;;;;1.70;100.00;100971.28;5052343;28;20036;-66
2022/11/19 06:14:14;;;;;;;;;;;;;;;1.75;100.00;100974.31;5053873;28;20082;-66
2022/11/19 06:16:40;;;;;;;31.67;15.43;;;;;;;1.73;100.00;100983.31;5052905;28;20775;-67
2022/11/19 06:19:05;;;;;;;31.38;15.10;;;;;;;1.70;100.00;100984.41;5052375;28;20068;-66
2022/11/19 06:21:31;;;;;;;28.88;15.07;;;;;;;1.61;100.00;100973.88;5052360;28;20040;-66
2022/11/19 06:23:56;;;;;;;31.67;17.17;;;;;;;1.69;100.00;100992.44;5052070;28;20036;-66
2022/11/19 06:26:26;;;;;;;31.40;16.92;;;;;;;1.64;100.00;100995.47;5052171;28;20062;-67
2022/11/19 06:28:52;;;;;;;28.60;14.30;;;;;;;1.60;100.00;100999.34;5051385;28;20029;-66
2022/11/19 06:31:18;;;;;;;31.52;17.85;;;;;;;1.59;100.00;100997.66;5050773;28;20040;-66
2022/11/19 06:33:43;;;;;;;32.75;17.70;;;;;;;1.57;100.00;100998.75;5051569;28;20346;-67
2022/11/19 06:36:09;;;;;;;32.28;16.90;;;;;;;1.56;100.00;101005.81;5051903;28;20369;-66
2022/11/19 06:38:34;;;;;;;32.90;16.52;;;;;;;1.59;100.00;101018.69;5049994;28;20044;-66
2022/11/19 06:41:00;;;;;;;32.35;14.65;;;;;;;1.58;100.00;101018.84;5051866;28;20127;-66
2022/11/19 06:43:25;;;;;;;34.58;16.10;;;;;;;1.59;100.00;101020.50;5051885;28;20051;-66
2022/11/19 06:45:50;;;;;;;35.00;18.17;;;;;;;1.59;100.00;101034.47;5051773;28;20052;-66
2022/11/19 06:48:15;;;;;;;35.53;18.17;;;;;;;1.56;100.00;101024.22;5051731;28;20025;-66
2022/11/19 06:50:41;;;;;;;37.15;17.25;;;;;;;1.54;100.00;101036.66;5051647;28;20037;-66
2022/11/19 06:53:06;;;;;;;35.00;16.85;;;;;;;1.52;100.00;101030.72;5051629;28;20538;-66
2022/11/19 06:55:32;;;;;;;32.97;18.23;;;;;;;1.51;100.00;101021.16;5051595;28;20033;-66
2022/11/19 06:58:01;;;;;;;32.35;15.63;;;;;;;1.51;100.00;101027.25;5051398;28;20052;-66
2022/11/19 07:00:26;;;;;;;33.42;16.08;;;;;;;1.52;100.00;101034.19;5051449;28;20112;-67
2022/11/19 07:02:51;;;;;;;33.80;17.63;;;;;;;1.51;100.00;101034.28;5049965;28;20124;-66
2022/11/19 07:05:17;;;;;;;32.08;18.10;;;;;;;1.54;100.00;101041.91;5051441;28;20060;-66
2022/11/19 07:07:42;;;;;;;34.08;15.95;;;;;;;1.45;100.00;101035.66;5051313;28;20033;-67
2022/11/19 07:10:08;;;;;;;35.17;17.13;;;;;;;1.55;100.00;101051.47;5051412;28;20146;-66
2022/11/19 07:12:33;;;;;;;35.00;18.00;;;;;;;1.56;100.00;101047.06;5051136;28;20086;-66
2022/11/19 07:14:58;;;;;;;36.55;19.52;;;;;;;1.57;100.00;101048.69;5051155;28;20420;-66
2022/11/19 07:17:24;;;;;;;33.30;16.05;;;;;;;1.60;100.00;101043.16;5051127;28;20036;-66
2022/11/19 07:19:49;;;;;;;31.30;17.63;;;;;;;1.57;100.00;101051.31;5051131;28;20068;-66
2022/11/19 07:22:14;;;;;;;32.40;16.23;;;;;;;1.59;100.00;101050.22;5050868;28;20029;-66
2022/11/19 07:24:40;;;;;;;33.83;16.45;;;;;;;1.56;100.00;101054.94;5050958;28;20028;-66
2022/11/19 07:27:05;;;;;;;33.03;14.95;;;;;;;1.55;100.00;101051.47;5050864;28;20116;-66
2022/11/19 07:29:30;;;;;;;38.78;17.83;;;;;;;1.54;100.00;101055.88;5050917;28;20083;-66
2022/11/19 07:31:56;;;;;;;37.08;19.08;;;;;;;1.56;100.00;101061.00;5050858;28;20037;-66
2022/11/19 07:34:21;;;;;;;31.25;17.50;;;;;;;1.56;100.00;101068.91;5050613;28;20029;-67
2022/11/19 07:36:48;;;;;;;37.58;17.15;;;;;;;1.59;100.00;101066.00;5049775;28;20025;-66
2022/11/19 07:39:13;;;;;;;32.17;16.83;;;;;;;1.59;100.00;101079.16;5050655;28;20500;-66
2022/11/19 07:44:23;;;;;;;34.83;16.80;;;;;;;1.58;100.00;101076.66;5050791;28;20158;-66
2022/11/19 07:46:48;;;;;;;34.90;18.15;;;;;;;1.58;100.00;101084.56;5050501;28;20111;-67
2022/11/19 07:49:15;;;;;;;32.70;17.33;;;;;;;1.56;100.00;101075.97;5050524;28;20087;-66
2022/11/19 07:51:40;;;;;;;32.22;17.30;;;;;;;1.57;100.00;101074.97;5050374;28;20061;-67
2022/11/19 07:54:08;;;;;;;31.80;15.05;;;;;;;1.58;100.00;101080.13;5050565;28;20132;-67
2022/11/19 07:56:33;;;;;;;31.02;16.65;;;;;;;1.59;100.00;101081.78;5050331;28;20021;-66
2022/11/19 07:58:59;;;;;;;30.42;15.80;;;;;;;1.58;100.00;101082.75;5050121;28;20045;-67
2022/11/19 08:01:25;;;;;;;30.30;16.00;;;;;;;1.60;100.00;101086.09;5050333;28;20094;-66
2022/11/19 08:03:51;;;;;;;33.95;15.27;;;;;;;1.60;100.00;101078.19;5049757;28;20041;-66
2022/11/19 08:06:18;;;;;;;32.67;17.02;;;;;;;1.62;100.00;101084.13;5050185;28;20438;-67
2022/11/19 08:08:44;;;;;;;30.45;15.75;;;;;;;1.60;100.00;101086.09;5041039;28;20036;-67
2022/11/19 08:11:11;;;;;;;30.75;16.13;;;;;;;1.65;100.00;101097.03;5043359;28;20515;-67
2022/11/19 08:13:38;;;;;;;32.08;15.82;;;;;;;1.66;100.00;101105.75;5044242;28;20029;-68
2022/11/19 08:16:07;;;;;;;32.80;16.95;;;;;;;1.69;100.00;101108.94;5044162;28;20571;-71
2022/11/19 08:18:32;;;;;;;28.88;14.82;;;;;;;1.71;100.00;101109.66;5049957;28;20152;-71
2022/11/19 08:21:06;;;;;;;31.63;15.95;;;;;;;1.71;100.00;101111.44;5048937;28;20194;-71
2022/11/19 08:23:32;;;;;;;33.88;17.83;;;;;;;1.69;100.00;101118.63;5049955;28;20028;-71
2022/11/19 08:25:59;;;;;;;31.38;15.27;;;;;;;1.71;100.00;101121.97;5049948;28;20040;-71
2022/11/19 08:28:24;;;;;;;31.90;17.48;;;;;;;1.71;100.00;101117.53;5049891;28;20396;-72
2022/11/19 08:30:50;;;;;;;29.83;15.77;;;;;;;1.72;100.00;101120.97;5049847;28;20025;-71
2022/11/19 08:33:15;;;;;;;40.03;18.83;;;;;;;1.71;100.00;101120.16;5049692;28;20113;-71
2022/11/19 08:35:41;;;;;;;31.65;15.48;;;;;;;1.75;100.00;101118.91;5048062;28;20074;-72
2022/11/19 08:38:08;;;;;;;32.78;17.40;;;;;;;1.78;100.00;101123.06;5050370;28;20025;-72
2022/11/19 08:40:33;;;;;;;36.10;18.45;;;;;;;1.76;100.00;101127.66;5049568;28;20040;-72
2022/11/19 08:42:58;;;;;;;35.17;17.58;;;;;;;1.75;100.00;101129.44;5049401;28;20021;-71
2022/11/19 08:45:28;;;;;;;32.80;16.15;;;;;;;1.69;100.00;101131.78;5049797;28;20032;-71
2022/11/19 08:47:54;;;;;;;31.48;14.80;;;;;;;1.71;100.00;101130.69;5049599;28;20040;-72
2022/11/19 08:50:20;;;;;;;27.90;14.70;;;;;;;1.73;100.00;101130.56;5049446;28;20036;-71
2022/11/19 08:52:45;;;;;;;31.30;17.02;;;;;;;1.73;100.00;101133.19;5049597;28;20033;-72
2022/11/19 08:55:11;;;;;;;32.72;18.48;;;;;;;1.70;100.00;101123.75;5048806;28;20033;-72
2022/11/19 08:57:37;;;;;;;32.70;17.35;;;;;;;1.74;99.81;101129.56;5049435;28;20049;-71
2022/11/19 09:00:03;;;;;;;30.98;16.13;;;;;;;1.76;100.00;101143.44;5049403;28;20560;-72
2022/11/19 09:02:28;;;;;;;28.77;15.48;;;;;;;1.71;99.26;101140.38;5049702;28;20029;-72
2022/11/19 09:04:53;;;;;;;29.92;14.85;;;;;;;1.70;99.61;101143.94;5049358;28;20036;-72
2022/11/19 09:07:19;;;;;;;33.72;15.90;;;;;;;1.68;99.07;101141.47;5049496;28;20033;-72
2022/11/19 09:09:44;;;;;;;31.27;15.23;;;;;;;1.65;98.11;101144.34;5031764;28;20048;-71
2022/11/19 09:12:09;;;;;;;27.73;13.65;;;;;;;1.61;98.90;101139.50;5049464;28;20077;-71
2022/11/19 09:14:35;;;;;;;30.45;15.48;;;;;;;1.63;97.97;101142.81;5049400;28;20040;-71
2022/11/19 09:17:00;;;;;;;31.00;14.88;;;;;;;1.61;98.08;101150.81;5049190;28;20040;-71
2022/11/19 09:19:26;;;;;;;32.92;16.13;;;;;;;1.61;98.50;101155.25;5049117;28;20116;-71
2022/11/19 09:21:51;;;;;;;28.95;14.93;;;;;;;1.59;98.80;101144.03;5049192;28;20417;-71
2022/11/19 09:24:16;;;;;;;30.85;16.73;;;;;;;1.63;99.59;101153.34;5049201;28;20029;-71
2022/11/19 09:26:42;;;;;;;30.15;15.77;;;;;;;1.65;100.00;101154.03;5049095;28;20025;-71
2022/11/19 09:29:07;;;;;;;31.45;16.08;;;;;;;1.59;100.00;101144.88;5049185;28;20029;-71
2022/11/19 09:31:32;;;;;;;31.63;15.45;;;;;;;1.64;99.74;101150.56;5049002;28;20029;-71
2022/11/19 09:33:58;;;;;;;31.73;13.95;;;;;;;1.66;100.00;101168.84;5047827;28;20021;-71
2022/11/19 09:36:23;;;;;;;30.98;14.88;;;;;;;1.65;99.95;101161.91;5049071;28;20108;-71
2022/11/19 09:38:48;;;;;;;28.55;14.40;;;;;;;1.66;100.00;101164.41;5048381;28;20033;-71
2022/11/19 09:41:52;;;;;;;33.03;17.75;;;;;;;1.68;98.53;101167.75;5049377;28;20565;-69
2022/11/19 09:44:35;;;;;;;30.13;15.98;;;;;;;1.71;100.00;101172.75;5048727;28;20173;-68
2022/11/19 09:47:20;;;;;;;25.17;12.18;;;;;;;1.74;98.11;101180.38;5046128;28;20033;-68
2022/11/19 09:50:13;;;;;;;28.40;15.30;;;;;;;1.70;95.84;101193.91;5042318;28;20063;-68
2022/11/19 09:52:47;;;;;;;28.65;16.50;;;;;;;1.59;97.21;101179.03;5042544;28;20013;-67
2022/11/19 09:55:17;;;;;;;27.00;11.88;;;;;;;1.62;97.50;101183.19;5043356;28;20029;-67
2022/11/19 09:57:48;;;;;;;29.10;13.32;;;;;;;1.69;97.30;101197.50;5042399;28;20122;-68
2022/11/19 10:00:21;;;;;;;29.20;13.85;;;;;;;1.70;96.63;101194.75;5048861;28;20033;-68
2022/11/19 10:02:47;;;;;;;29.60;14.07;;;;;;;1.68;97.80;101201.94;5048183;28;20090;-68
2022/11/19 10:05:26;;;;;;;29.40;13.35;;;;;;;1.60;98.00;101191.25;5048742;28;20464;-67
2022/11/19 10:08:07;;;;;;;29.10;14.27;;;;;;;1.65;96.83;101204.81;5052372;28;20072;-67
2022/11/19 10:10:52;;;;;;;29.43;13.93;;;;;;;1.64;95.96;101199.69;5052448;28;20454;-67
2022/11/19 10:13:41;;;;;;;29.15;13.10;;;;;;;1.67;96.87;101199.41;5052446;28;20025;-67
2022/11/19 10:16:09;;;;;;;28.90;14.02;;;;;;;1.63;97.08;101214.63;5052334;28;20116;-67
2022/11/19 10:19:03;;;;;;;26.63;12.10;;;;;;;1.68;98.03;101209.81;5052430;28;20029;-68
2022/11/19 10:21:41;;;;;;;26.02;14.57;;;;;;;1.61;96.69;101210.47;5052223;28;20081;-67
2022/11/19 10:24:16;;;;;;;28.02;13.65;;;;;;;1.58;96.41;101210.72;5052108;28;20033;-67
2022/11/19 10:26:45;;;;;;;24.63;12.48;;;;;;;1.52;95.56;101205.03;5051985;28;20041;-68
2022/11/19 10:29:17;;;;;;;31.55;13.50;;;;;;;1.44;95.07;101217.13;5052146;28;20036;-67
2022/11/19 10:31:45;;;;;;;28.23;12.85;;;;;;;1.33;94.30;101215.38;5052059;28;20025;-67
2022/11/19 10:34:40;;;;;;;24.27;10.98;;;;;;;1.38;95.67;101223.72;5051912;28;20078;-67
2022/11/19 10:37:13;;;;;;;28.25;14.95;;;;;;;1.35;96.28;101217.91;5051726;28;20037;-67
2022/11/19 10:39:45;;;;;;;27.35;12.98;;;;;;;1.31;95.34;101223.41;5051577;28;20040;-67
2022/11/19 10:42:27;;;;;;;25.52;11.88;;;;;;;1.33;95.27;101223.28;5051853;28;20040;-67
2022/11/19 10:45:01;;;;;;;26.92;12.60;;;;;;;1.24;94.50;101226.69;5051627;28;20028;-67
2022/11/19 10:47:41;;;;;;;24.73;11.43;;;;;;;1.23;95.09;101223.22;5051406;28;20053;-67
2022/11/19 10:50:14;;;;;;;26.45;12.82;;;;;;;1.26;96.17;101230.84;5051683;28;20025;-69
2022/11/19 10:52:49;;;;;;;23.65;11.02;;;;;;;1.29;96.52;101221.88;5051685;28;20396;-69
2022/11/19 10:55:22;;;;;;;25.17;10.60;;;;;;;1.25;95.23;101213.41;5051600;28;20375;-69
2022/11/19 10:57:49;;;;;;;24.83;11.68;;;;;;;1.24;95.86;101227.50;5051009;28;20053;-69
2022/11/19 11:00:16;;;;;;;21.77;9.75;;;;;;;1.18;94.69;101217.50;5050859;28;20029;-69
2022/11/19 11:02:46;;;;;;;23.40;12.45;;;;;;;1.13;95.75;101216.19;5051846;28;20040;-68
2022/11/19 11:05:15;;;;;;;25.50;12.23;;;;;;;1.12;94.08;101222.44;5051572;28;20025;-68
2022/11/19 11:07:52;;;;;;;23.27;11.05;;;;;;;1.13;95.75;101218.81;5051145;28;20060;-68
2022/11/19 11:10:30;;;;;;;22.63;10.23;;;;;;;1.11;95.66;101221.59;5051250;28;20045;-69
2022/11/19 11:15:49;;;;;;;23.73;11.73;;;;;;;1.05;94.93;101222.09;5051092;28;20048;-68
2022/11/19 11:18:17;;;;;;;23.92;10.73;;;;;;;1.02;94.98;101223.19;5050553;28;20044;-69
2022/11/19 11:20:49;;;;;;;24.90;14.32;;;;;;;1.05;95.82;101222.94;5051061;28;20108;-68
2022/11/19 11:23:18;;;;;;;22.45;10.07;;;;;;;1.03;95.28;101218.78;5050925;28;20037;-68
2022/11/19 11:25:55;;;;;;;23.25;9.25;;;;;;;0.96;94.83;101209.72;5050714;28;20036;-68
2022/11/19 11:28:22;;;;;;;21.10;11.25;;;;;;;1.06;95.77;101221.13;5050993;28;20025;-68
2022/11/19 11:31:09;;;;;;;21.95;10.13;;;;;;;1.07;95.59;101220.16;5050900;28;20060;-68
2022/11/19 11:33:54;;;;;;;22.83;10.65;;;;;;;1.07;95.16;101214.91;5050768;28;20025;-68
2022/11/19 11:36:24;;;;;;;23.35;9.80;;;;;;;1.09;94.57;101213.00;5049450;28;20086;-68
2022/11/19 11:38:53;;;;;;;22.10;10.73;;;;;;;1.05;94.39;101209.81;5050374;28;20035;-68